Terminal Aerodrome Forecast
Issued by NWS

Current Version | Previous Version | Text Only | Print | Product List | Glossary On
Versions: 1 2 3 4 5 6 7 8 9 10 11 12 13 14 15 16
996
FTUS45 KRIW 072333
TAFRKS
TAF
KRKS 072333Z 0800/0824 28007KT P6SM SCT030
     FM080300 VRB05KT P6SM VCFG FEW005 SCT250
     FM081900 VRB06KT P6SM SCT040=

USA.gov is the U.S. government's official web portal to all federal, state and local government web resources and services.